sensor_id;sensor_type;location;lat;lon;timestamp;temperature;humidity
44223;DHT22;29895;48.804;9.386;2023-03-14T00:00:23;9.70;99.90
44223;DHT22;29895;48.804;9.386;2023-03-14T00:02:55;9.70;99.90
44223;DHT22;29895;48.804;9.386;2023-03-14T00:05:20;9.70;99.90
44223;DHT22;29895;48.804;9.386;2023-03-14T00:07:46;9.80;99.90
44223;DHT22;29895;48.804;9.386;2023-03-14T00:10:13;9.80;99.90
44223;DHT22;29895;48.804;9.386;2023-03-14T00:12:40;9.90;99.90
44223;DHT22;29895;48.804;9.386;2023-03-14T00:15:06;9.90;99.90
44223;DHT22;29895;48.804;9.386;2023-03-14T00:17:34;9.90;99.90
44223;DHT22;29895;48.804;9.386;2023-03-14T00:20:00;9.80;99.90
44223;DHT22;29895;48.804;9.386;2023-03-14T00:22:40;9.80;99.90
44223;DHT22;29895;48.804;9.386;2023-03-14T00:25:07;9.90;99.90
44223;DHT22;29895;48.804;9.386;2023-03-14T00:27:33;10.00;99.90
44223;DHT22;29895;48.804;9.386;2023-03-14T00:29:59;9.90;99.90
44223;DHT22;29895;48.804;9.386;2023-03-14T00:32:25;10.00;99.90
44223;DHT22;29895;48.804;9.386;2023-03-14T00:34:51;10.00;99.90
44223;DHT22;29895;48.804;9.386;2023-03-14T00:37:17;10.00;99.90
44223;DHT22;29895;48.804;9.386;2023-03-14T00:39:42;10.00;99.90
44223;DHT22;29895;48.804;9.386;2023-03-14T00:42:08;10.10;99.90
44223;DHT22;29895;48.804;9.386;2023-03-14T00:44:34;10.10;99.90
44223;DHT22;29895;48.804;9.386;2023-03-14T00:47:00;10.10;99.90
44223;DHT22;29895;48.804;9.386;2023-03-14T00:49:26;10.00;99.90
44223;DHT22;29895;48.804;9.386;2023-03-14T00:51:52;10.10;99.90
44223;DHT22;29895;48.804;9.386;2023-03-14T00:54:18;10.00;99.90
44223;DHT22;29895;48.804;9.386;2023-03-14T00:56:44;10.00;99.90
44223;DHT22;29895;48.804;9.386;2023-03-14T00:59:10;10.10;99.90
44223;DHT22;29895;48.804;9.386;2023-03-14T01:01:35;10.10;99.90
44223;DHT22;29895;48.804;9.386;2023-03-14T01:04:01;10.10;99.90
44223;DHT22;29895;48.804;9.386;2023-03-14T01:06:28;10.10;99.90
44223;DHT22;29895;48.804;9.386;2023-03-14T01:08:54;10.00;99.90
44223;DHT22;29895;48.804;9.386;2023-03-14T01:11:25;10.00;99.90
44223;DHT22;29895;48.804;9.386;2023-03-14T01:13:52;10.00;99.90
44223;DHT22;29895;48.804;9.386;2023-03-14T01:16:19;10.00;99.90
44223;DHT22;29895;48.804;9.386;2023-03-14T01:18:46;10.00;99.90
44223;DHT22;29895;48.804;9.386;2023-03-14T01:23:41;10.10;99.90
44223;DHT22;29895;48.804;9.386;2023-03-14T01:26:11;10.10;99.90
44223;DHT22;29895;48.804;9.386;2023-03-14T01:28:37;10.10;99.90
44223;DHT22;29895;48.804;9.386;2023-03-14T01:31:05;10.20;99.90
44223;DHT22;29895;48.804;9.386;2023-03-14T01:33:30;10.20;99.90
44223;DHT22;29895;48.804;9.386;2023-03-14T01:35:56;10.20;99.90
44223;DHT22;29895;48.804;9.386;2023-03-14T01:38:22;10.10;99.90
44223;DHT22;29895;48.804;9.386;2023-03-14T01:40:50;10.10;99.90
44223;DHT22;29895;48.804;9.386;2023-03-14T01:43:19;10.00;99.90
44223;DHT22;29895;48.804;9.386;2023-03-14T01:51:01;10.00;99.90
44223;DHT22;29895;48.804;9.386;2023-03-14T01:53:28;10.00;99.90
44223;DHT22;29895;48.804;9.386;2023-03-14T01:55:55;10.00;99.90
44223;DHT22;29895;48.804;9.386;2023-03-14T01:58:26;9.90;99.90
44223;DHT22;29895;48.804;9.386;2023-03-14T02:00:57;9.90;99.90
44223;DHT22;29895;48.804;9.386;2023-03-14T02:03:25;9.90;99.90
44223;DHT22;29895;48.804;9.386;2023-03-14T02:05:55;9.90;99.90
44223;DHT22;29895;48.804;9.386;2023-03-14T02:08:22;9.90;99.90
44223;DHT22;29895;48.804;9.386;2023-03-14T02:10:50;10.00;99.90
44223;DHT22;29895;48.804;9.386;2023-03-14T02:13:19;10.10;99.90
44223;DHT22;29895;48.804;9.386;2023-03-14T02:15:47;10.20;99.90
44223;DHT22;29895;48.804;9.386;2023-03-14T02:18:14;10.20;99.90
44223;DHT22;29895;48.804;9.386;2023-03-14T02:21:00;10.20;99.90
44223;DHT22;29895;48.804;9.386;2023-03-14T02:26:38;10.10;99.90
44223;DHT22;29895;48.804;9.386;2023-03-14T02:29:06;10.10;99.90
44223;DHT22;29895;48.804;9.386;2023-03-14T02:31:32;10.10;99.90
44223;DHT22;29895;48.804;9.386;2023-03-14T02:33:59;10.00;99.90
44223;DHT22;29895;48.804;9.386;2023-03-14T02:36:26;10.00;99.90
44223;DHT22;29895;48.804;9.386;2023-03-14T02:41:26;10.00;99.90
44223;DHT22;29895;48.804;9.386;2023-03-14T02:43:52;10.00;99.90
44223;DHT22;29895;48.804;9.386;2023-03-14T02:46:20;10.00;99.90
44223;DHT22;29895;48.804;9.386;2023-03-14T02:51:19;10.00;99.90
44223;DHT22;29895;48.804;9.386;2023-03-14T02:53:45;10.10;99.90
44223;DHT22;29895;48.804;9.386;2023-03-14T02:56:11;10.10;99.90
44223;DHT22;29895;48.804;9.386;2023-03-14T02:58:37;10.20;99.90
44223;DHT22;29895;48.804;9.386;2023-03-14T03:01:03;10.10;99.90
44223;DHT22;29895;48.804;9.386;2023-03-14T03:03:28;10.20;99.90
44223;DHT22;29895;48.804;9.386;2023-03-14T03:05:56;10.20;99.90
44223;DHT22;29895;48.804;9.386;2023-03-14T03:08:23;10.20;99.90
44223;DHT22;29895;48.804;9.386;2023-03-14T03:10:49;10.10;99.90
44223;DHT22;29895;48.804;9.386;2023-03-14T03:13:15;10.10;99.90
44223;DHT22;29895;48.804;9.386;2023-03-14T03:15:41;10.00;99.90
44223;DHT22;29895;48.804;9.386;2023-03-14T03:18:07;10.00;99.90
44223;DHT22;29895;48.804;9.386;2023-03-14T03:20:33;10.00;99.90
44223;DHT22;29895;48.804;9.386;2023-03-14T03:22:59;10.00;99.90
44223;DHT22;29895;48.804;9.386;2023-03-14T03:25:25;9.90;99.90
44223;DHT22;29895;48.804;9.386;2023-03-14T03:27:51;9.90;99.90
44223;DHT22;29895;48.804;9.386;2023-03-14T03:30:17;9.90;99.90
44223;DHT22;29895;48.804;9.386;2023-03-14T03:32:43;9.90;99.90
44223;DHT22;29895;48.804;9.386;2023-03-14T03:35:09;9.90;99.90
44223;DHT22;29895;48.804;9.386;2023-03-14T03:37:35;9.90;99.90
44223;DHT22;29895;48.804;9.386;2023-03-14T03:40:02;10.00;99.90
44223;DHT22;29895;48.804;9.386;2023-03-14T03:42:31;9.90;99.90
44223;DHT22;29895;48.804;9.386;2023-03-14T03:44:56;9.90;99.90
44223;DHT22;29895;48.804;9.386;2023-03-14T03:47:22;9.90;99.90
44223;DHT22;29895;48.804;9.386;2023-03-14T03:49:48;9.90;99.90
44223;DHT22;29895;48.804;9.386;2023-03-14T03:52:13;9.90;99.90
44223;DHT22;29895;48.804;9.386;2023-03-14T03:54:39;9.90;99.90
44223;DHT22;29895;48.804;9.386;2023-03-14T03:57:05;9.90;99.90
44223;DHT22;29895;48.804;9.386;2023-03-14T03:59:30;9.90;99.90
44223;DHT22;29895;48.804;9.386;2023-03-14T04:01:56;9.80;99.90
44223;DHT22;29895;48.804;9.386;2023-03-14T04:04:21;9.80;99.90
44223;DHT22;29895;48.804;9.386;2023-03-14T04:06:47;9.80;99.90
44223;DHT22;29895;48.804;9.386;2023-03-14T04:09:13;9.80;99.90
44223;DHT22;29895;48.804;9.386;2023-03-14T04:11:39;9.80;99.90
44223;DHT22;29895;48.804;9.386;2023-03-14T04:14:05;9.70;99.90
44223;DHT22;29895;48.804;9.386;2023-03-14T04:16:31;9.80;99.90
44223;DHT22;29895;48.804;9.386;2023-03-14T04:18:57;9.70;99.90
44223;DHT22;29895;48.804;9.386;2023-03-14T04:21:23;9.70;99.90
44223;DHT22;29895;48.804;9.386;2023-03-14T04:23:49;9.70;99.90
44223;DHT22;29895;48.804;9.386;2023-03-14T04:26:15;9.70;99.90
44223;DHT22;29895;48.804;9.386;2023-03-14T04:28:41;9.60;99.90
44223;DHT22;29895;48.804;9.386;2023-03-14T04:31:12;9.60;99.90
44223;DHT22;29895;48.804;9.386;2023-03-14T04:33:38;9.60;99.90
44223;DHT22;29895;48.804;9.386;2023-03-14T04:36:04;9.50;99.90
44223;DHT22;29895;48.804;9.386;2023-03-14T04:38:31;9.60;99.90
44223;DHT22;29895;48.804;9.386;2023-03-14T04:40:56;9.60;99.90
44223;DHT22;29895;48.804;9.386;2023-03-14T04:43:22;9.60;99.90
44223;DHT22;29895;48.804;9.386;2023-03-14T04:45:48;9.60;99.90
44223;DHT22;29895;48.804;9.386;2023-03-14T04:48:14;9.60;99.90
44223;DHT22;29895;48.804;9.386;2023-03-14T04:50:39;9.60;99.90
44223;DHT22;29895;48.804;9.386;2023-03-14T04:53:05;9.60;99.90
44223;DHT22;29895;48.804;9.386;2023-03-14T04:55:32;9.50;99.90
44223;DHT22;29895;48.804;9.386;2023-03-14T04:57:58;9.50;99.90
44223;DHT22;29895;48.804;9.386;2023-03-14T05:00:24;9.50;99.90
44223;DHT22;29895;48.804;9.386;2023-03-14T05:02:50;9.50;99.90
44223;DHT22;29895;48.804;9.386;2023-03-14T05:05:16;9.40;99.90
44223;DHT22;29895;48.804;9.386;2023-03-14T05:07:42;9.40;99.90
44223;DHT22;29895;48.804;9.386;2023-03-14T05:10:08;9.40;99.90
44223;DHT22;29895;48.804;9.386;2023-03-14T05:12:34;9.40;99.90
44223;DHT22;29895;48.804;9.386;2023-03-14T05:14:59;9.20;99.90
44223;DHT22;29895;48.804;9.386;2023-03-14T05:17:25;9.30;99.90
44223;DHT22;29895;48.804;9.386;2023-03-14T05:19:51;9.30;99.90
44223;DHT22;29895;48.804;9.386;2023-03-14T05:22:17;9.20;99.90
44223;DHT22;29895;48.804;9.386;2023-03-14T05:24:43;9.20;99.90
44223;DHT22;29895;48.804;9.386;2023-03-14T05:27:09;9.20;99.90
44223;DHT22;29895;48.804;9.386;2023-03-14T05:29:35;9.30;99.90
44223;DHT22;29895;48.804;9.386;2023-03-14T05:32:00;9.30;99.90
44223;DHT22;29895;48.804;9.386;2023-03-14T05:34:26;9.30;99.90
44223;DHT22;29895;48.804;9.386;2023-03-14T05:36:52;9.40;99.90
44223;DHT22;29895;48.804;9.386;2023-03-14T05:39:17;9.30;99.90
44223;DHT22;29895;48.804;9.386;2023-03-14T05:41:43;9.40;99.90
44223;DHT22;29895;48.804;9.386;2023-03-14T05:44:09;9.30;99.90
44223;DHT22;29895;48.804;9.386;2023-03-14T05:46:34;9.30;99.90
44223;DHT22;29895;48.804;9.386;2023-03-14T05:49:00;9.30;99.90
44223;DHT22;29895;48.804;9.386;2023-03-14T05:51:26;9.30;99.90
44223;DHT22;29895;48.804;9.386;2023-03-14T05:53:51;9.20;99.90
44223;DHT22;29895;48.804;9.386;2023-03-14T05:56:17;9.10;99.90
44223;DHT22;29895;48.804;9.386;2023-03-14T05:58:43;9.10;99.90
44223;DHT22;29895;48.804;9.386;2023-03-14T06:01:09;9.10;99.90
44223;DHT22;29895;48.804;9.386;2023-03-14T06:03:34;9.10;99.90
44223;DHT22;29895;48.804;9.386;2023-03-14T06:06:00;9.20;99.90
44223;DHT22;29895;48.804;9.386;2023-03-14T06:08:26;9.20;99.90
44223;DHT22;29895;48.804;9.386;2023-03-14T06:10:52;9.30;99.90
44223;DHT22;29895;48.804;9.386;2023-03-14T06:13:18;9.40;99.90
44223;DHT22;29895;48.804;9.386;2023-03-14T06:15:44;9.40;99.90
44223;DHT22;29895;48.804;9.386;2023-03-14T06:18:10;9.40;99.90
44223;DHT22;29895;48.804;9.386;2023-03-14T06:20:39;9.40;99.90
44223;DHT22;29895;48.804;9.386;2023-03-14T06:23:05;9.40;99.90
44223;DHT22;29895;48.804;9.386;2023-03-14T06:25:32;9.50;99.90
44223;DHT22;29895;48.804;9.386;2023-03-14T06:27:58;9.50;99.90
44223;DHT22;29895;48.804;9.386;2023-03-14T06:30:24;9.50;99.90
44223;DHT22;29895;48.804;9.386;2023-03-14T06:32:50;9.50;99.90
44223;DHT22;29895;48.804;9.386;2023-03-14T06:35:16;9.50;99.90
44223;DHT22;29895;48.804;9.386;2023-03-14T06:37:42;9.50;99.90
44223;DHT22;29895;48.804;9.386;2023-03-14T06:40:09;9.50;99.90
44223;DHT22;29895;48.804;9.386;2023-03-14T06:42:35;9.50;99.90
44223;DHT22;29895;48.804;9.386;2023-03-14T06:45:01;9.60;99.90
44223;DHT22;29895;48.804;9.386;2023-03-14T06:47:27;9.60;99.90
44223;DHT22;29895;48.804;9.386;2023-03-14T06:49:52;9.70;99.90
44223;DHT22;29895;48.804;9.386;2023-03-14T06:52:18;9.70;99.90
44223;DHT22;29895;48.804;9.386;2023-03-14T06:54:44;9.80;99.90
44223;DHT22;29895;48.804;9.386;2023-03-14T06:57:09;9.80;99.90
44223;DHT22;29895;48.804;9.386;2023-03-14T06:59:35;10.10;99.90
44223;DHT22;29895;48.804;9.386;2023-03-14T07:02:01;10.60;99.90
44223;DHT22;29895;48.804;9.386;2023-03-14T07:04:26;11.10;99.90
44223;DHT22;29895;48.804;9.386;2023-03-14T07:06:52;11.30;99.90
44223;DHT22;29895;48.804;9.386;2023-03-14T07:09:17;11.20;99.90
44223;DHT22;29895;48.804;9.386;2023-03-14T07:11:43;11.00;99.90
44223;DHT22;29895;48.804;9.386;2023-03-14T07:14:09;10.90;99.90
44223;DHT22;29895;48.804;9.386;2023-03-14T07:16:35;10.80;99.90
44223;DHT22;29895;48.804;9.386;2023-03-14T07:19:01;10.70;99.90
44223;DHT22;29895;48.804;9.386;2023-03-14T07:21:27;10.70;99.90
44223;DHT22;29895;48.804;9.386;2023-03-14T07:23:53;11.10;99.90
44223;DHT22;29895;48.804;9.386;2023-03-14T07:26:19;11.80;99.90
44223;DHT22;29895;48.804;9.386;2023-03-14T07:28:44;12.50;99.90
44223;DHT22;29895;48.804;9.386;2023-03-14T07:31:10;13.10;99.90
44223;DHT22;29895;48.804;9.386;2023-03-14T07:33:35;13.70;99.90
44223;DHT22;29895;48.804;9.386;2023-03-14T07:36:01;14.40;99.90
44223;DHT22;29895;48.804;9.386;2023-03-14T07:38:27;14.70;99.90
44223;DHT22;29895;48.804;9.386;2023-03-14T07:41:04;15.00;99.90
44223;DHT22;29895;48.804;9.386;2023-03-14T07:43:30;15.40;99.90
44223;DHT22;29895;48.804;9.386;2023-03-14T07:45:56;15.20;99.90
44223;DHT22;29895;48.804;9.386;2023-03-14T07:48:22;15.10;99.90
44223;DHT22;29895;48.804;9.386;2023-03-14T07:50:50;15.00;99.90
44223;DHT22;29895;48.804;9.386;2023-03-14T07:53:16;14.70;99.90
44223;DHT22;29895;48.804;9.386;2023-03-14T07:55:42;14.60;99.90
44223;DHT22;29895;48.804;9.386;2023-03-14T07:58:08;14.60;99.90
44223;DHT22;29895;48.804;9.386;2023-03-14T08:00:33;14.60;99.90
44223;DHT22;29895;48.804;9.386;2023-03-14T08:02:59;14.60;99.90
44223;DHT22;29895;48.804;9.386;2023-03-14T08:05:25;14.60;99.90
44223;DHT22;29895;48.804;9.386;2023-03-14T08:07:50;14.50;99.90
44223;DHT22;29895;48.804;9.386;2023-03-14T08:10:16;14.40;99.90
44223;DHT22;29895;48.804;9.386;2023-03-14T08:12:50;14.30;99.90
44223;DHT22;29895;48.804;9.386;2023-03-14T08:15:16;14.30;99.90
44223;DHT22;29895;48.804;9.386;2023-03-14T08:17:41;14.30;99.90
44223;DHT22;29895;48.804;9.386;2023-03-14T08:20:07;14.30;99.90
44223;DHT22;29895;48.804;9.386;2023-03-14T08:22:36;14.40;99.90
44223;DHT22;29895;48.804;9.386;2023-03-14T08:25:02;14.50;99.90
44223;DHT22;29895;48.804;9.386;2023-03-14T08:27:27;14.50;99.90
44223;DHT22;29895;48.804;9.386;2023-03-14T08:29:53;14.50;99.90
44223;DHT22;29895;48.804;9.386;2023-03-14T08:32:19;14.40;99.90
44223;DHT22;29895;48.804;9.386;2023-03-14T08:34:45;14.30;99.90
44223;DHT22;29895;48.804;9.386;2023-03-14T08:37:11;14.40;99.90
44223;DHT22;29895;48.804;9.386;2023-03-14T08:39:37;14.50;99.90
44223;DHT22;29895;48.804;9.386;2023-03-14T08:42:02;14.70;99.90
44223;DHT22;29895;48.804;9.386;2023-03-14T08:44:28;14.80;99.90
44223;DHT22;29895;48.804;9.386;2023-03-14T08:46:54;14.90;99.90
44223;DHT22;29895;48.804;9.386;2023-03-14T08:49:20;15.00;99.90
44223;DHT22;29895;48.804;9.386;2023-03-14T08:51:46;15.10;99.90
44223;DHT22;29895;48.804;9.386;2023-03-14T08:54:11;15.20;99.90
44223;DHT22;29895;48.804;9.386;2023-03-14T08:56:37;15.20;99.90
44223;DHT22;29895;48.804;9.386;2023-03-14T08:59:05;15.30;99.90
44223;DHT22;29895;48.804;9.386;2023-03-14T09:01:31;15.20;99.90
44223;DHT22;29895;48.804;9.386;2023-03-14T09:03:57;15.40;99.90
44223;DHT22;29895;48.804;9.386;2023-03-14T09:06:23;15.60;99.90
44223;DHT22;29895;48.804;9.386;2023-03-14T09:08:49;15.90;99.90
44223;DHT22;29895;48.804;9.386;2023-03-14T09:11:14;15.80;99.90
44223;DHT22;29895;48.804;9.386;2023-03-14T09:13:40;15.90;99.90
44223;DHT22;29895;48.804;9.386;2023-03-14T09:16:07;15.80;99.90
44223;DHT22;29895;48.804;9.386;2023-03-14T09:18:33;15.40;99.90
44223;DHT22;29895;48.804;9.386;2023-03-14T09:20:58;14.90;99.90
44223;DHT22;29895;48.804;9.386;2023-03-14T09:23:24;14.40;99.90
44223;DHT22;29895;48.804;9.386;2023-03-14T09:25:58;14.20;99.90
44223;DHT22;29895;48.804;9.386;2023-03-14T09:28:23;14.00;99.90
44223;DHT22;29895;48.804;9.386;2023-03-14T09:30:49;14.00;99.90
44223;DHT22;29895;48.804;9.386;2023-03-14T09:33:16;14.10;99.90
44223;DHT22;29895;48.804;9.386;2023-03-14T09:35:41;14.20;99.90
44223;DHT22;29895;48.804;9.386;2023-03-14T09:38:07;14.20;99.90
44223;DHT22;29895;48.804;9.386;2023-03-14T09:40:36;14.30;99.90
44223;DHT22;29895;48.804;9.386;2023-03-14T09:43:03;14.30;99.90
44223;DHT22;29895;48.804;9.386;2023-03-14T09:45:34;14.50;99.90
44223;DHT22;29895;48.804;9.386;2023-03-14T09:48:02;14.50;99.90
44223;DHT22;29895;48.804;9.386;2023-03-14T09:50:37;14.60;99.90
44223;DHT22;29895;48.804;9.386;2023-03-14T09:53:09;14.80;99.90
44223;DHT22;29895;48.804;9.386;2023-03-14T09:55:36;15.10;99.90
44223;DHT22;29895;48.804;9.386;2023-03-14T09:58:08;15.00;99.90
44223;DHT22;29895;48.804;9.386;2023-03-14T10:00:35;15.20;99.90
44223;DHT22;29895;48.804;9.386;2023-03-14T10:05:40;15.20;99.90
44223;DHT22;29895;48.804;9.386;2023-03-14T10:08:06;15.30;99.90
44223;DHT22;29895;48.804;9.386;2023-03-14T10:10:32;15.30;99.90
44223;DHT22;29895;48.804;9.386;2023-03-14T10:15:52;15.10;99.90
44223;DHT22;29895;48.804;9.386;2023-03-14T10:18:18;15.10;99.90
44223;DHT22;29895;48.804;9.386;2023-03-14T10:20:46;14.90;99.90
44223;DHT22;29895;48.804;9.386;2023-03-14T10:26:08;15.00;99.90
44223;DHT22;29895;48.804;9.386;2023-03-14T10:28:45;15.20;99.90
44223;DHT22;29895;48.804;9.386;2023-03-14T10:31:13;15.20;99.90
44223;DHT22;29895;48.804;9.386;2023-03-14T10:33:39;15.30;99.90
44223;DHT22;29895;48.804;9.386;2023-03-14T10:36:17;15.40;99.90
44223;DHT22;29895;48.804;9.386;2023-03-14T10:38:44;15.70;99.90
44223;DHT22;29895;48.804;9.386;2023-03-14T10:41:20;16.00;99.90
44223;DHT22;29895;48.804;9.386;2023-03-14T10:43:54;16.20;99.90
44223;DHT22;29895;48.804;9.386;2023-03-14T10:46:24;16.10;99.90
44223;DHT22;29895;48.804;9.386;2023-03-14T10:48:51;16.10;99.90
44223;DHT22;29895;48.804;9.386;2023-03-14T10:51:29;15.80;99.90
44223;DHT22;29895;48.804;9.386;2023-03-14T10:54:12;15.50;99.90
44223;DHT22;29895;48.804;9.386;2023-03-14T10:56:38;15.30;99.90
44223;DHT22;29895;48.804;9.386;2023-03-14T10:59:07;15.20;99.90
44223;DHT22;29895;48.804;9.386;2023-03-14T11:01:39;15.20;99.90
44223;DHT22;29895;48.804;9.386;2023-03-14T11:07:23;14.90;99.90
44223;DHT22;29895;48.804;9.386;2023-03-14T11:23:21;13.70;99.90
44223;DHT22;29895;48.804;9.386;2023-03-14T11:29:27;13.60;99.90
44223;DHT22;29895;48.804;9.386;2023-03-14T11:31:48;13.50;99.90
44223;DHT22;29895;48.804;9.386;2023-03-14T11:34:17;13.40;99.90
44223;DHT22;29895;48.804;9.386;2023-03-14T11:37:06;13.30;99.90
44223;DHT22;29895;48.804;9.386;2023-03-14T11:42:44;12.90;99.90
44223;DHT22;29895;48.804;9.386;2023-03-14T11:45:18;12.70;99.90
44223;DHT22;29895;48.804;9.386;2023-03-14T11:47:47;12.50;99.90
44223;DHT22;29895;48.804;9.386;2023-03-14T11:50:18;12.40;99.90
44223;DHT22;29895;48.804;9.386;2023-03-14T11:53:01;12.40;99.90
44223;DHT22;29895;48.804;9.386;2023-03-14T11:55:32;12.40;99.90
44223;DHT22;29895;48.804;9.386;2023-03-14T11:58:03;12.40;99.90
44223;DHT22;29895;48.804;9.386;2023-03-14T12:00:35;12.50;99.90
44223;DHT22;29895;48.804;9.386;2023-03-14T12:03:28;12.70;99.90
44223;DHT22;29895;48.804;9.386;2023-03-14T12:06:13;12.70;99.90
44223;DHT22;29895;48.804;9.386;2023-03-14T12:08:58;12.50;99.90
44223;DHT22;29895;48.804;9.386;2023-03-14T12:11:37;12.50;99.90
44223;DHT22;29895;48.804;9.386;2023-03-14T12:14:20;12.40;99.90
44223;DHT22;29895;48.804;9.386;2023-03-14T12:16:48;12.20;99.90
44223;DHT22;29895;48.804;9.386;2023-03-14T12:21:55;12.10;99.90
44223;DHT22;29895;48.804;9.386;2023-03-14T12:24:31;12.20;99.90
44223;DHT22;29895;48.804;9.386;2023-03-14T12:27:02;12.30;99.90
44223;DHT22;29895;48.804;9.386;2023-03-14T12:29:29;12.40;99.90
44223;DHT22;29895;48.804;9.386;2023-03-14T12:34:28;12.50;99.90
44223;DHT22;29895;48.804;9.386;2023-03-14T12:37:35;12.60;99.90
44223;DHT22;29895;48.804;9.386;2023-03-14T12:43:27;12.90;99.90
44223;DHT22;29895;48.804;9.386;2023-03-14T12:46:26;12.90;99.90
44223;DHT22;29895;48.804;9.386;2023-03-14T12:49:04;13.10;99.90
44223;DHT22;29895;48.804;9.386;2023-03-14T12:51:38;12.90;99.90
44223;DHT22;29895;48.804;9.386;2023-03-14T13:07:02;11.60;99.90
44223;DHT22;29895;48.804;9.386;2023-03-14T13:11:55;11.40;99.90
44223;DHT22;29895;48.804;9.386;2023-03-14T13:14:23;11.50;99.90
44223;DHT22;29895;48.804;9.386;2023-03-14T13:16:49;11.50;99.90
44223;DHT22;29895;48.804;9.386;2023-03-14T13:19:19;11.50;99.90
44223;DHT22;29895;48.804;9.386;2023-03-14T13:21:45;11.30;99.90
44223;DHT22;29895;48.804;9.386;2023-03-14T13:24:23;11.30;99.90
44223;DHT22;29895;48.804;9.386;2023-03-14T13:26:49;11.20;99.90
44223;DHT22;29895;48.804;9.386;2023-03-14T13:29:25;11.20;99.90
44223;DHT22;29895;48.804;9.386;2023-03-14T13:31:54;11.20;99.90
44223;DHT22;29895;48.804;9.386;2023-03-14T13:34:22;11.20;99.90
44223;DHT22;29895;48.804;9.386;2023-03-14T13:36:52;11.30;99.90
44223;DHT22;29895;48.804;9.386;2023-03-14T13:39:20;11.20;99.90
44223;DHT22;29895;48.804;9.386;2023-03-14T13:41:50;11.10;99.90
44223;DHT22;29895;48.804;9.386;2023-03-14T13:46:50;11.10;99.90
44223;DHT22;29895;48.804;9.386;2023-03-14T13:49:22;11.00;99.90
44223;DHT22;29895;48.804;9.386;2023-03-14T13:51:49;10.90;99.90
44223;DHT22;29895;48.804;9.386;2023-03-14T13:54:17;10.70;99.90
44223;DHT22;29895;48.804;9.386;2023-03-14T13:56:43;10.60;99.90
44223;DHT22;29895;48.804;9.386;2023-03-14T13:59:23;10.70;99.90
44223;DHT22;29895;48.804;9.386;2023-03-14T14:01:50;10.90;99.90
44223;DHT22;29895;48.804;9.386;2023-03-14T14:04:18;11.00;99.90
44223;DHT22;29895;48.804;9.386;2023-03-14T14:06:50;11.20;99.90
44223;DHT22;29895;48.804;9.386;2023-03-14T14:09:24;11.30;99.90
44223;DHT22;29895;48.804;9.386;2023-03-14T14:14:49;11.30;99.50
44223;DHT22;29895;48.804;9.386;2023-03-14T14:17:48;11.10;99.00
44223;DHT22;29895;48.804;9.386;2023-03-14T14:20:29;10.90;99.20
44223;DHT22;29895;48.804;9.386;2023-03-14T14:22:58;10.80;98.90
44223;DHT22;29895;48.804;9.386;2023-03-14T14:25:24;10.70;99.90
44223;DHT22;29895;48.804;9.386;2023-03-14T14:27:50;10.50;98.00
44223;DHT22;29895;48.804;9.386;2023-03-14T14:32:47;10.40;97.10
44223;DHT22;29895;48.804;9.386;2023-03-14T14:35:24;10.40;97.40
44223;DHT22;29895;48.804;9.386;2023-03-14T14:37:50;10.50;97.20
44223;DHT22;29895;48.804;9.386;2023-03-14T14:40:17;10.30;97.50
44223;DHT22;29895;48.804;9.386;2023-03-14T14:42:44;10.30;97.30
44223;DHT22;29895;48.804;9.386;2023-03-14T14:45:21;10.20;97.50
44223;DHT22;29895;48.804;9.386;2023-03-14T14:47:54;10.20;97.30
44223;DHT22;29895;48.804;9.386;2023-03-14T14:50:29;10.20;97.50
44223;DHT22;29895;48.804;9.386;2023-03-14T14:55:51;10.20;97.50
44223;DHT22;29895;48.804;9.386;2023-03-14T15:01:03;10.20;97.50
44223;DHT22;29895;48.804;9.386;2023-03-14T15:03:32;10.20;97.60
44223;DHT22;29895;48.804;9.386;2023-03-14T15:05:59;10.10;97.80
44223;DHT22;29895;48.804;9.386;2023-03-14T15:08:25;10.10;98.20
44223;DHT22;29895;48.804;9.386;2023-03-14T15:10:52;10.20;98.00
44223;DHT22;29895;48.804;9.386;2023-03-14T15:13:17;10.20;98.20
44223;DHT22;29895;48.804;9.386;2023-03-14T15:15:44;10.20;98.50
44223;DHT22;29895;48.804;9.386;2023-03-14T15:18:16;10.20;98.00
44223;DHT22;29895;48.804;9.386;2023-03-14T15:20:43;10.20;98.30
44223;DHT22;29895;48.804;9.386;2023-03-14T15:23:14;10.30;98.50
44223;DHT22;29895;48.804;9.386;2023-03-14T15:25:40;10.30;98.20
44223;DHT22;29895;48.804;9.386;2023-03-14T15:28:15;10.30;98.50
44223;DHT22;29895;48.804;9.386;2023-03-14T15:30:41;10.50;98.20
44223;DHT22;29895;48.804;9.386;2023-03-14T15:33:07;10.60;97.80
44223;DHT22;29895;48.804;9.386;2023-03-14T15:35:37;10.70;97.60
44223;DHT22;29895;48.804;9.386;2023-03-14T15:38:03;10.70;97.40
44223;DHT22;29895;48.804;9.386;2023-03-14T15:40:29;10.70;97.60
44223;DHT22;29895;48.804;9.386;2023-03-14T15:42:55;10.50;97.90
44223;DHT22;29895;48.804;9.386;2023-03-14T15:45:20;10.30;98.00
44223;DHT22;29895;48.804;9.386;2023-03-14T15:47:46;10.10;98.30
44223;DHT22;29895;48.804;9.386;2023-03-14T15:50:12;10.00;98.20
44223;DHT22;29895;48.804;9.386;2023-03-14T15:52:37;9.90;98.50
44223;DHT22;29895;48.804;9.386;2023-03-14T15:55:03;9.90;98.40
44223;DHT22;29895;48.804;9.386;2023-03-14T15:57:29;10.00;99.40
44223;DHT22;29895;48.804;9.386;2023-03-14T15:59:55;10.10;99.20
44223;DHT22;29895;48.804;9.386;2023-03-14T16:02:20;10.10;99.90
44223;DHT22;29895;48.804;9.386;2023-03-14T16:04:46;10.10;99.40
44223;DHT22;29895;48.804;9.386;2023-03-14T16:07:11;10.00;99.00
44223;DHT22;29895;48.804;9.386;2023-03-14T16:09:37;9.90;99.10
44223;DHT22;29895;48.804;9.386;2023-03-14T16:12:03;9.90;99.40
44223;DHT22;29895;48.804;9.386;2023-03-14T16:14:30;10.00;99.10
44223;DHT22;29895;48.804;9.386;2023-03-14T16:16:56;10.00;99.70
44223;DHT22;29895;48.804;9.386;2023-03-14T16:19:25;10.00;99.80
44223;DHT22;29895;48.804;9.386;2023-03-14T16:21:52;9.80;99.80
44223;DHT22;29895;48.804;9.386;2023-03-14T16:24:18;9.70;99.50
44223;DHT22;29895;48.804;9.386;2023-03-14T16:26:44;9.60;99.60
44223;DHT22;29895;48.804;9.386;2023-03-14T16:29:10;9.60;99.90
44223;DHT22;29895;48.804;9.386;2023-03-14T16:31:36;9.50;99.90
44223;DHT22;29895;48.804;9.386;2023-03-14T16:34:08;9.50;99.90
44223;DHT22;29895;48.804;9.386;2023-03-14T16:36:34;9.50;99.90
44223;DHT22;29895;48.804;9.386;2023-03-14T16:39:00;9.60;99.90
44223;DHT22;29895;48.804;9.386;2023-03-14T16:41:25;9.60;99.90
44223;DHT22;29895;48.804;9.386;2023-03-14T16:43:58;9.60;99.90
44223;DHT22;29895;48.804;9.386;2023-03-14T16:46:24;9.60;99.90
44223;DHT22;29895;48.804;9.386;2023-03-14T16:48:51;9.50;99.90
44223;DHT22;29895;48.804;9.386;2023-03-14T16:51:18;9.50;99.90
44223;DHT22;29895;48.804;9.386;2023-03-14T16:53:44;9.40;99.90
44223;DHT22;29895;48.804;9.386;2023-03-14T16:56:10;9.40;99.90
44223;DHT22;29895;48.804;9.386;2023-03-14T16:58:36;9.40;99.90
44223;DHT22;29895;48.804;9.386;2023-03-14T17:01:06;9.40;99.90
44223;DHT22;29895;48.804;9.386;2023-03-14T17:03:45;9.40;99.90